createdAt,value
2023-08-02T00:00:01.536Z,97390.00
2023-08-02T00:02:37.262Z,97398.00
2023-08-02T00:05:12.038Z,97396.00
2023-08-02T00:07:48.958Z,97394.00
2023-08-02T00:10:23.795Z,97390.00
2023-08-02T00:12:57.877Z,97391.00
2023-08-02T00:15:32.155Z,97396.00
2023-08-02T00:18:07.773Z,97387.00
2023-08-02T00:20:42.671Z,97390.00
2023-08-02T00:23:16.949Z,97386.00
2023-08-02T00:25:52.674Z,97391.00
2023-08-02T00:28:26.901Z,97377.00
2023-08-02T00:31:01.277Z,97372.00
2023-08-02T00:33:36.897Z,97370.00
2023-08-02T00:36:11.115Z,97362.00
2023-08-02T00:38:45.749Z,97359.00
2023-08-02T00:41:22.323Z,97349.00
2023-08-02T00:43:56.717Z,97348.00
2023-08-02T00:46:31.177Z,97347.00
2023-08-02T00:49:07.449Z,97345.00
2023-08-02T00:51:41.857Z,97338.00
2023-08-02T00:54:16.211Z,97338.00
2023-08-02T00:56:51.546Z,97339.00
2023-08-02T00:59:25.711Z,97333.00
2023-08-02T01:02:00.205Z,97324.00
2023-08-02T01:04:37.375Z,97327.00
2023-08-02T01:07:23.284Z,97322.00
2023-08-02T01:10:11.388Z,97320.00
2023-08-02T01:12:47.958Z,97312.00
2023-08-02T01:15:23.529Z,97323.00
2023-08-02T01:17:58.793Z,97326.00
2023-08-02T01:20:34.813Z,97326.00
2023-08-02T01:23:09.034Z,97324.00
2023-08-02T01:25:47.047Z,97339.00
2023-08-02T01:28:25.203Z,97337.00
2023-08-02T01:31:01.803Z,97329.00
2023-08-02T01:33:45.041Z,97320.00
2023-08-02T01:36:21.326Z,97315.00
2023-08-02T01:38:56.145Z,97305.00
2023-08-02T01:41:30.213Z,97301.00
2023-08-02T01:44:04.606Z,97300.00
2023-08-02T01:46:38.771Z,97294.00
2023-08-02T01:49:12.926Z,97289.00
2023-08-02T01:51:49.892Z,97291.00
2023-08-02T01:54:24.508Z,97288.00
2023-08-02T01:56:58.697Z,97291.00
2023-08-02T01:59:32.935Z,97291.00
2023-08-02T02:02:07.235Z,97294.00
2023-08-02T02:04:41.571Z,97283.00
2023-08-02T02:07:17.018Z,97284.00
2023-08-02T02:09:51.514Z,97296.00
2023-08-02T02:12:25.736Z,97281.00
2023-08-02T02:14:59.922Z,97272.00
2023-08-02T02:17:34.593Z,97264.00
2023-08-02T02:20:10.842Z,97257.00
2023-08-02T02:22:46.407Z,97240.00
2023-08-02T02:25:20.551Z,97238.00
2023-08-02T02:27:54.702Z,97233.00
2023-08-02T02:30:28.790Z,97236.00
2023-08-02T02:33:04.310Z,97230.00
2023-08-02T02:35:38.699Z,97238.00
2023-08-02T02:38:15.035Z,97235.00
2023-08-02T02:40:50.832Z,97237.00
2023-08-02T02:43:25.780Z,97234.00
2023-08-02T02:45:59.954Z,97239.00
2023-08-02T02:48:34.145Z,97225.00
2023-08-02T02:51:08.434Z,97231.00
2023-08-02T02:53:43.927Z,97234.00
2023-08-02T02:56:18.139Z,97232.00
2023-08-02T02:58:55.402Z,97227.00
2023-08-02T03:01:29.555Z,97225.00
2023-08-02T03:04:03.794Z,97219.00
2023-08-02T03:06:38.208Z,97215.00
2023-08-02T03:09:13.828Z,97213.00
2023-08-02T03:11:48.697Z,97198.00
2023-08-02T03:14:23.609Z,97197.00
2023-08-02T03:16:57.844Z,97188.00
2023-08-02T03:19:32.061Z,97188.00
2023-08-02T03:22:07.142Z,97175.00
2023-08-02T03:24:42.671Z,97183.00
2023-08-02T03:27:16.898Z,97185.00
2023-08-02T03:29:51.997Z,97179.00
2023-08-02T03:32:26.164Z,97184.00
2023-08-02T03:35:00.240Z,97182.00
2023-08-02T03:37:34.432Z,97183.00
2023-08-02T03:40:11.935Z,97183.00
2023-08-02T03:42:46.028Z,97178.00
2023-08-02T03:45:20.438Z,97179.00
2023-08-02T03:47:55.148Z,97176.00
2023-08-02T03:50:29.627Z,97170.00
2023-08-02T03:53:04.002Z,97167.00
2023-08-02T03:55:39.566Z,97161.00
2023-08-02T03:58:13.693Z,97169.00
2023-08-02T04:00:48.188Z,97156.00
2023-08-02T04:03:22.544Z,97151.00
2023-08-02T04:05:56.773Z,97145.00
2023-08-02T04:08:31.652Z,97127.00
2023-08-02T04:11:08.040Z,97128.00
2023-08-02T04:13:42.154Z,97117.00
2023-08-02T04:16:18.516Z,97123.00
2023-08-02T04:18:54.171Z,97113.00
2023-08-02T04:21:28.290Z,97106.00
2023-08-02T04:24:03.310Z,97113.00
2023-08-02T04:26:38.965Z,97101.00
2023-08-02T04:29:13.182Z,97112.00
2023-08-02T04:31:47.712Z,97098.00
2023-08-02T04:34:21.912Z,97105.00
2023-08-02T04:36:56.029Z,97094.00
2023-08-02T04:39:30.197Z,97092.00
2023-08-02T04:42:07.335Z,97082.00
2023-08-02T04:44:41.660Z,97081.00
2023-08-02T04:47:16.128Z,97077.00
2023-08-02T04:49:50.890Z,97068.00
2023-08-02T04:52:25.346Z,97079.00
2023-08-02T04:54:59.530Z,97075.00
2023-08-02T04:57:36.455Z,97076.00
2023-08-02T05:00:12.119Z,97072.00
2023-08-02T05:02:47.935Z,97072.00
2023-08-02T05:05:22.186Z,97074.00
2023-08-02T05:07:56.395Z,97059.00
2023-08-02T05:10:30.651Z,97059.00
2023-08-02T05:13:07.213Z,97063.00
2023-08-02T05:15:42.056Z,97064.00
2023-08-02T05:18:16.271Z,97072.00
2023-08-02T05:20:51.959Z,97072.00
2023-08-02T05:23:26.256Z,97067.00
2023-08-02T05:26:05.679Z,97060.00
2023-08-02T05:28:41.969Z,97063.00
2023-08-02T05:31:17.699Z,97068.00
2023-08-02T05:33:55.904Z,97057.00
2023-08-02T05:36:30.127Z,97054.00
2023-08-02T05:39:04.633Z,97047.00
2023-08-02T05:41:38.952Z,97046.00
2023-08-02T05:44:14.395Z,97042.00
2023-08-02T05:46:48.549Z,97038.00
2023-08-02T05:49:22.673Z,97030.00
2023-08-02T05:51:56.862Z,97033.00
2023-08-02T05:54:31.074Z,97033.00
2023-08-02T05:57:06.179Z,97031.00
2023-08-02T05:59:41.781Z,97029.00
2023-08-02T06:02:15.870Z,97025.00
2023-08-02T06:04:50.045Z,97015.00
2023-08-02T06:07:24.280Z,97013.00
2023-08-02T06:09:58.615Z,97020.00
2023-08-02T06:12:32.868Z,97010.00
2023-08-02T06:15:10.871Z,97006.00
2023-08-02T06:17:45.467Z,97006.00
2023-08-02T06:20:19.823Z,97004.00
2023-08-02T06:22:54.083Z,96998.00
2023-08-02T06:25:29.390Z,96988.00
2023-08-02T06:28:03.635Z,96982.00
2023-08-02T06:30:39.353Z,96978.00
2023-08-02T06:33:13.705Z,96981.00
2023-08-02T06:35:47.913Z,96974.00
2023-08-02T06:38:22.080Z,96963.00
2023-08-02T06:40:57.032Z,96972.00
2023-08-02T06:43:31.382Z,96968.00
2023-08-02T06:46:07.748Z,96960.00
2023-08-02T06:48:42.207Z,96961.00
2023-08-02T06:51:16.439Z,96955.00
2023-08-02T06:53:50.679Z,96957.00
2023-08-02T06:56:25.022Z,96952.00
2023-08-02T06:59:01.459Z,96946.00
2023-08-02T07:01:36.991Z,96945.00
2023-08-02T07:04:11.202Z,96947.00
2023-08-02T07:06:45.714Z,96935.00
2023-08-02T07:09:19.903Z,96944.00
2023-08-02T07:11:54.085Z,96938.00
2023-08-02T07:14:28.748Z,96936.00
2023-08-02T07:17:04.263Z,96926.00
2023-08-02T07:19:38.388Z,96933.00
2023-08-02T07:22:14.716Z,96932.00
2023-08-02T07:24:49.037Z,96935.00
2023-08-02T07:27:23.286Z,96934.00
2023-08-02T07:29:58.581Z,96923.00
2023-08-02T07:32:34.599Z,96915.00
2023-08-02T07:35:10.433Z,96906.00
2023-08-02T07:37:44.782Z,96913.00
2023-08-02T07:40:19.240Z,96909.00
2023-08-02T07:42:53.828Z,96919.00
2023-08-02T07:45:28.331Z,96911.00
2023-08-02T07:48:04.049Z,96909.00
2023-08-02T07:50:38.213Z,96906.00
2023-08-02T07:53:12.759Z,96892.00
2023-08-02T07:55:47.147Z,96900.00
2023-08-02T07:58:21.364Z,96891.00
2023-08-02T08:00:55.855Z,96892.00
2023-08-02T08:03:32.034Z,96888.00
2023-08-02T08:06:13.730Z,96890.00
2023-08-02T08:08:47.952Z,96882.00
2023-08-02T08:11:24.294Z,96877.00
2023-08-02T08:14:03.983Z,96872.00
2023-08-02T08:16:38.548Z,96876.00
2023-08-02T08:19:14.123Z,96883.00
2023-08-02T08:21:48.539Z,96874.00
2023-08-02T08:24:23.015Z,96872.00
2023-08-02T08:26:57.986Z,96865.00
2023-08-02T08:29:32.668Z,96860.00
2023-08-02T08:32:07.390Z,96860.00
2023-08-02T08:34:43.874Z,96857.00
2023-08-02T08:37:18.930Z,96855.00
2023-08-02T08:40:07.712Z,96859.00
2023-08-02T08:42:51.801Z,96850.00
2023-08-02T08:45:27.622Z,96859.00
2023-08-02T08:48:02.373Z,96848.00
2023-08-02T08:50:39.189Z,96845.00
2023-08-02T08:53:19.367Z,96847.00
2023-08-02T08:55:54.325Z,96841.00
2023-08-02T08:58:28.806Z,96833.00
2023-08-02T09:01:08.754Z,96836.00
2023-08-02T09:03:45.535Z,96829.00
2023-08-02T09:06:22.598Z,96826.00
2023-08-02T09:08:57.223Z,96825.00
2023-08-02T09:11:31.797Z,96826.00
2023-08-02T09:14:13.902Z,96821.00
2023-08-02T09:17:01.271Z,96817.00
2023-08-02T09:19:38.055Z,96807.00
2023-08-02T09:22:16.631Z,96815.00
2023-08-02T09:24:50.902Z,96808.00
2023-08-02T09:27:25.335Z,96800.00
2023-08-02T09:30:02.304Z,96792.00
2023-08-02T09:32:36.771Z,96795.00
2023-08-02T09:35:11.020Z,96787.00
2023-08-02T09:37:47.871Z,96787.00
2023-08-02T09:40:39.146Z,96779.00
2023-08-02T09:43:20.359Z,96779.00
2023-08-02T09:45:54.685Z,96782.00
2023-08-02T09:48:38.464Z,96776.00
2023-08-02T09:51:12.987Z,96769.00
2023-08-02T09:53:57.442Z,96750.00
2023-08-02T09:56:35.254Z,96754.00
2023-08-02T09:59:10.675Z,96756.00
2023-08-02T10:01:47.972Z,96764.00
2023-08-02T10:04:26.427Z,96764.00
2023-08-02T10:07:06.190Z,96755.00
2023-08-02T10:09:42.376Z,96745.00
2023-08-02T10:12:18.589Z,96752.00
2023-08-02T10:14:57.978Z,96747.00
2023-08-02T10:17:33.237Z,96742.00
2023-08-02T10:20:09.612Z,96740.00
2023-08-02T10:22:44.979Z,96725.00
2023-08-02T10:25:21.661Z,96725.00
2023-08-02T10:27:56.386Z,96725.00
2023-08-02T10:30:33.413Z,96722.00
2023-08-02T10:33:16.089Z,96716.00
2023-08-02T10:35:59.918Z,96703.00
2023-08-02T10:38:51.009Z,96702.00
2023-08-02T10:41:28.779Z,96701.00
2023-08-02T10:44:15.804Z,96695.00
2023-08-02T10:46:50.446Z,96688.00
2023-08-02T10:49:42.046Z,96672.00
2023-08-02T10:52:31.904Z,96680.00
2023-08-02T10:55:12.516Z,96676.00
2023-08-02T10:58:09.831Z,96669.00
2023-08-02T11:00:47.241Z,96665.00
2023-08-02T11:03:30.955Z,96664.00
2023-08-02T11:06:05.339Z,96657.00
2023-08-02T11:08:49.739Z,96660.00
2023-08-02T11:11:35.645Z,96645.00
2023-08-02T11:14:11.808Z,96649.00
2023-08-02T11:16:54.457Z,96633.00
2023-08-02T11:19:30.779Z,96629.00
2023-08-02T11:22:05.670Z,96638.00
2023-08-02T11:24:47.531Z,96644.00
2023-08-02T11:27:23.848Z,96637.00
2023-08-02T11:30:00.111Z,96636.00
2023-08-02T11:32:34.541Z,96629.00
2023-08-02T11:35:09.493Z,96626.00
2023-08-02T11:37:43.672Z,96625.00
2023-08-02T11:42:56.502Z,96603.00
2023-08-02T11:45:33.369Z,96580.00
2023-08-02T11:48:11.378Z,96590.00
2023-08-02T11:50:46.344Z,96576.00
2023-08-02T11:53:20.482Z,96579.00
2023-08-02T11:55:54.874Z,96568.00
2023-08-02T11:58:29.409Z,96567.00
2023-08-02T12:01:07.746Z,96565.00
2023-08-02T12:03:54.769Z,96559.00
2023-08-02T12:06:30.484Z,96565.00
2023-08-02T12:09:05.479Z,96570.00
2023-08-02T12:11:39.719Z,96569.00
2023-08-02T12:14:13.866Z,96569.00
2023-08-02T12:16:49.637Z,96560.00
2023-08-02T12:19:40.230Z,96546.00
2023-08-02T12:22:17.033Z,96539.00
2023-08-02T12:25:08.233Z,96518.00
2023-08-02T12:27:42.515Z,96523.00
2023-08-02T12:30:17.733Z,96518.00
2023-08-02T12:32:53.624Z,96520.00
2023-08-02T12:35:28.089Z,96507.00
2023-08-02T12:38:02.648Z,96503.00
2023-08-02T12:40:36.903Z,96507.00
2023-08-02T12:43:11.231Z,96502.00
2023-08-02T12:45:46.934Z,96497.00
2023-08-02T12:48:23.090Z,96505.00
2023-08-02T12:50:57.249Z,96487.00
2023-08-02T12:53:31.320Z,96487.00
2023-08-02T12:56:05.973Z,96491.00
2023-08-02T12:58:40.084Z,96487.00
2023-08-02T13:01:14.275Z,96473.00
2023-08-02T13:03:49.907Z,96484.00
2023-08-02T13:06:24.691Z,96492.00
2023-08-02T13:08:59.755Z,96499.00
2023-08-02T13:11:33.973Z,96501.00
2023-08-02T13:14:08.094Z,96488.00
2023-08-02T13:16:42.550Z,96490.00
2023-08-02T13:19:18.301Z,96475.00
2023-08-02T13:21:52.470Z,96476.00
2023-08-02T13:24:26.776Z,96478.00
2023-08-02T13:27:00.979Z,96478.00
2023-08-02T13:29:35.316Z,96477.00
2023-08-02T13:32:12.390Z,96478.00
2023-08-02T13:34:47.909Z,96487.00
2023-08-02T13:37:24.982Z,96483.00
2023-08-02T13:39:59.088Z,96487.00
2023-08-02T13:42:33.321Z,96476.00
2023-08-02T13:45:08.477Z,96470.00
2023-08-02T13:47:42.642Z,96478.00
2023-08-02T13:50:18.605Z,96483.00
2023-08-02T13:52:52.813Z,96500.00
2023-08-02T13:55:27.102Z,96509.00
2023-08-02T13:58:01.464Z,96498.00
2023-08-02T14:00:37.680Z,96508.00
2023-08-02T14:03:12.004Z,96485.00
2023-08-02T14:05:47.904Z,96494.00
2023-08-02T14:08:22.129Z,96485.00
2023-08-02T14:10:56.732Z,96488.00
2023-08-02T14:13:30.926Z,96480.00
2023-08-02T14:16:05.614Z,96473.00
2023-08-02T14:18:39.751Z,96469.00
2023-08-02T14:21:15.419Z,96470.00
2023-08-02T14:23:55.837Z,96486.00
2023-08-02T14:26:30.249Z,96476.00
2023-08-02T14:29:04.482Z,96476.00
2023-08-02T14:31:38.734Z,96463.00
2023-08-02T14:34:13.443Z,96465.00
2023-08-02T14:36:49.961Z,96458.00
2023-08-02T14:39:24.584Z,96456.00
2023-08-02T14:41:58.823Z,96440.00
2023-08-02T14:44:33.018Z,96451.00
2023-08-02T14:47:08.110Z,96448.00
2023-08-02T14:49:42.319Z,96443.00
2023-08-02T14:52:17.802Z,96450.00
2023-08-02T14:54:52.033Z,96446.00
2023-08-02T14:57:26.127Z,96443.00
2023-08-02T15:00:00.247Z,96439.00
2023-08-02T15:02:34.365Z,96423.00
2023-08-02T15:05:09.206Z,96423.00
2023-08-02T15:07:44.862Z,96417.00
2023-08-02T15:10:19.613Z,96419.00
2023-08-02T15:12:54.278Z,96425.00
2023-08-02T15:15:28.462Z,96407.00
2023-08-02T15:18:02.716Z,96403.00
2023-08-02T15:20:36.851Z,96418.00
2023-08-02T15:23:12.409Z,96415.00
2023-08-02T15:25:46.632Z,96412.00
2023-08-02T15:28:20.910Z,96389.00
2023-08-02T15:30:55.099Z,96395.00
2023-08-02T15:33:31.792Z,96397.00
2023-08-02T15:36:06.671Z,96393.00
2023-08-02T15:38:42.188Z,96383.00
2023-08-02T15:41:16.370Z,96390.00
2023-08-02T15:43:50.997Z,96389.00
2023-08-02T15:46:25.258Z,96389.00
2023-08-02T15:48:59.538Z,96389.00
2023-08-02T15:51:33.876Z,96397.00
2023-08-02T15:54:09.649Z,96409.00
2023-08-02T15:56:44.072Z,96408.00
2023-08-02T15:59:18.837Z,96412.00
2023-08-02T16:01:53.007Z,96422.00
2023-08-02T16:04:27.236Z,96418.00
2023-08-02T16:07:03.769Z,96415.00
2023-08-02T16:09:39.307Z,96401.00
2023-08-02T16:12:13.577Z,96402.00
2023-08-02T16:14:47.757Z,96388.00
2023-08-02T16:17:22.165Z,96371.00
2023-08-02T16:19:56.401Z,96391.00
2023-08-02T16:22:30.534Z,96395.00
2023-08-02T16:25:07.958Z,96389.00
2023-08-02T16:27:45.367Z,96387.00
2023-08-02T16:30:19.954Z,96372.00
2023-08-02T16:32:54.916Z,96382.00
2023-08-02T16:35:29.157Z,96377.00
2023-08-02T16:38:03.226Z,96361.00
2023-08-02T16:40:38.673Z,96338.00
2023-08-02T16:43:14.850Z,96331.00
2023-08-02T16:45:48.973Z,96347.00
2023-08-02T16:48:23.100Z,96356.00
2023-08-02T16:50:57.214Z,96364.00
2023-08-02T16:53:31.795Z,96375.00
2023-08-02T16:56:07.358Z,96384.00
2023-08-02T16:58:42.617Z,96393.00
2023-08-02T17:01:16.777Z,96392.00
2023-08-02T17:03:52.937Z,96395.00
2023-08-02T17:06:28.359Z,96397.00
2023-08-02T17:09:02.691Z,96409.00
2023-08-02T17:11:38.494Z,96424.00
2023-08-02T17:14:13.025Z,96446.00
2023-08-02T17:16:57.380Z,96464.00
2023-08-02T17:19:31.839Z,96468.00
2023-08-02T17:22:06.819Z,96465.00
2023-08-02T17:24:41.839Z,96451.00
2023-08-02T17:27:17.638Z,96454.00
2023-08-02T17:29:51.960Z,96459.00
2023-08-02T17:32:26.522Z,96449.00
2023-08-02T17:35:00.591Z,96442.00
2023-08-02T17:37:34.912Z,96456.00
2023-08-02T17:40:14.094Z,96457.00
2023-08-02T17:42:49.632Z,96452.00
2023-08-02T17:45:24.854Z,96460.00
2023-08-02T17:47:59.189Z,96492.00
2023-08-02T17:50:33.529Z,96471.00
2023-08-02T17:53:07.645Z,96464.00
2023-08-02T17:55:45.017Z,96494.00
2023-08-02T17:58:20.773Z,96529.00
2023-08-02T18:00:57.924Z,96519.00
2023-08-02T18:03:32.278Z,96524.00
2023-08-02T18:06:06.902Z,96546.00
2023-08-02T18:08:43.926Z,96565.00
2023-08-02T18:11:18.954Z,96588.00
2023-08-02T18:13:55.666Z,96576.00
2023-08-02T18:16:29.825Z,96566.00
2023-08-02T18:19:04.219Z,96564.00
2023-08-02T18:21:38.752Z,96551.00
2023-08-02T18:24:12.946Z,96530.00
2023-08-02T18:26:49.587Z,96545.00
2023-08-02T18:29:25.352Z,96533.00
2023-08-02T18:32:00.256Z,96543.00
2023-08-02T18:34:34.528Z,96545.00
2023-08-02T18:37:08.748Z,96537.00
2023-08-02T18:39:42.964Z,96539.00
2023-08-02T18:42:17.298Z,96535.00
2023-08-02T18:44:55.047Z,96532.00
2023-08-02T18:47:29.517Z,96543.00
2023-08-02T18:50:07.105Z,96537.00
2023-08-02T18:52:41.754Z,96541.00
2023-08-02T18:55:16.276Z,96557.00
2023-08-02T18:57:50.626Z,96568.00
2023-08-02T19:00:28.818Z,96591.00
2023-08-02T19:03:04.934Z,96621.00
2023-08-02T19:05:39.407Z,96636.00
2023-08-02T19:08:14.723Z,96636.00
2023-08-02T19:10:50.398Z,96642.00
2023-08-02T19:13:25.190Z,96620.00
2023-08-02T19:16:01.304Z,96643.00
2023-08-02T19:18:44.781Z,96625.00
2023-08-02T19:21:20.181Z,96629.00
2023-08-02T19:23:54.588Z,96638.00
2023-08-02T19:26:29.079Z,96649.00
2023-08-02T19:29:03.411Z,96629.00
2023-08-02T19:31:39.008Z,96629.00
2023-08-02T19:34:15.148Z,96632.00
2023-08-02T19:36:52.487Z,96640.00
2023-08-02T19:39:40.998Z,96653.00
2023-08-02T19:42:20.952Z,96675.00
2023-08-02T19:44:57.190Z,96676.00
2023-08-02T19:47:33.534Z,96670.00
2023-08-02T19:50:10.224Z,96681.00
2023-08-02T19:52:45.004Z,96679.00
2023-08-02T19:55:20.093Z,96690.00
2023-08-02T19:57:54.499Z,96690.00
2023-08-02T20:00:28.781Z,96690.00
2023-08-02T20:03:06.463Z,96689.00
2023-08-02T20:05:59.641Z,96689.00
2023-08-02T20:08:36.515Z,96688.00
2023-08-02T20:11:11.083Z,96677.00
2023-08-02T20:13:48.009Z,96678.00
2023-08-02T20:16:25.543Z,96675.00
2023-08-02T20:19:04.197Z,96675.00
2023-08-02T20:21:40.470Z,96678.00
2023-08-02T20:24:18.621Z,96676.00
2023-08-02T20:26:54.329Z,96686.00
2023-08-02T20:29:28.645Z,96675.00
2023-08-02T20:32:02.875Z,96674.00
2023-08-02T20:34:45.138Z,96675.00
2023-08-02T20:37:19.453Z,96680.00
2023-08-02T20:39:58.250Z,96683.00
2023-08-02T20:42:32.468Z,96685.00
2023-08-02T20:45:10.956Z,96684.00
2023-08-02T20:47:45.172Z,96678.00
2023-08-02T20:50:21.303Z,96678.00
2023-08-02T20:52:58.136Z,96686.00
2023-08-02T20:55:37.105Z,96698.00
2023-08-02T20:58:18.407Z,96688.00
2023-08-02T21:00:58.877Z,96696.00
2023-08-02T21:03:36.667Z,96701.00
2023-08-02T21:06:13.288Z,96712.00
2023-08-02T21:08:51.164Z,96721.00
2023-08-02T21:11:33.600Z,96729.00
2023-08-02T21:14:07.939Z,96736.00
2023-08-02T21:16:42.467Z,96746.00
2023-08-02T21:19:34.854Z,96751.00
2023-08-02T21:22:15.088Z,96739.00
2023-08-02T21:24:49.404Z,96742.00
2023-08-02T21:27:25.853Z,96755.00
2023-08-02T21:30:03.232Z,96750.00
2023-08-02T21:32:42.238Z,96762.00
2023-08-02T21:35:18.975Z,96763.00
2023-08-02T21:37:57.524Z,96780.00
2023-08-02T21:40:35.150Z,96783.00
2023-08-02T21:43:15.097Z,96784.00
2023-08-02T21:45:55.287Z,96799.00
2023-08-02T21:48:29.865Z,96805.00
2023-08-02T21:51:07.489Z,96815.00
2023-08-02T21:53:47.596Z,96810.00
2023-08-02T21:56:29.203Z,96815.00
2023-08-02T21:59:04.225Z,96816.00
2023-08-02T22:01:41.915Z,96824.00
2023-08-02T22:04:16.827Z,96817.00
2023-08-02T22:06:51.329Z,96820.00
2023-08-02T22:09:27.019Z,96818.00
2023-08-02T22:12:06.929Z,96832.00
2023-08-02T22:14:41.218Z,96835.00
2023-08-02T22:17:27.563Z,96833.00
2023-08-02T22:20:01.831Z,96834.00
2023-08-02T22:22:36.144Z,96838.00
2023-08-02T22:25:12.107Z,96842.00
2023-08-02T22:27:48.487Z,96849.00
2023-08-02T22:30:26.679Z,96850.00
2023-08-02T22:33:02.080Z,96854.00
2023-08-02T22:35:36.371Z,96862.00
2023-08-02T22:38:15.437Z,96859.00
2023-08-02T22:40:52.869Z,96858.00
2023-08-02T22:43:35.317Z,96859.00
2023-08-02T22:46:09.901Z,96863.00
2023-08-02T22:51:21.633Z,96869.00
2023-08-02T22:54:01.379Z,96874.00
2023-08-02T22:56:42.061Z,96878.00
2023-08-02T22:59:21.710Z,96885.00
2023-08-02T23:01:55.868Z,96885.00
2023-08-02T23:04:35.633Z,96882.00
2023-08-02T23:07:22.272Z,96883.00
2023-08-02T23:10:10.977Z,96882.00
2023-08-02T23:12:50.142Z,96885.00
2023-08-02T23:15:27.059Z,96882.00
2023-08-02T23:18:05.330Z,96884.00
2023-08-02T23:20:50.844Z,96885.00
2023-08-02T23:23:30.089Z,96880.00
2023-08-02T23:26:09.380Z,96884.00
2023-08-02T23:28:54.795Z,96885.00
2023-08-02T23:31:31.116Z,96886.00
2023-08-02T23:34:05.723Z,96885.00
2023-08-02T23:36:40.057Z,96883.00
2023-08-02T23:39:15.582Z,96888.00
2023-08-02T23:41:49.914Z,96898.00
2023-08-02T23:44:27.842Z,96886.00
2023-08-02T23:47:04.383Z,96892.00
2023-08-02T23:49:38.513Z,96888.00
2023-08-02T23:52:12.717Z,96877.00
2023-08-02T23:54:46.863Z,96879.00
2023-08-02T23:57:21.195Z,96888.00
2023-08-02T23:59:57.841Z,96889.00
